Time,TemperatureF,DewpointF,PressureIn,WindDirection,WindDirectionDegrees,WindSpeedMPH,WindSpeedGustMPH,Humidity,HourlyPrecipIn,Conditions,Clouds,dailyrainin,SoftwareType,DateUTC
2013-04-01 14:00:00,-999.0,-99.9,-100.00,North,-999,-999.0,-999.0,-999,-99.99,,,-99.99,Acu-Link.com,2013-04-01 18:00:00,
2013-04-01 14:15:00,66.6,48.4,29.91,NNW,337,4.7,-999.0,52,-99.99,,,0.00,Acu-Link.com,2013-04-01 18:15:00,
2013-04-01 14:30:00,65.7,47.6,29.90,ESE,112,4.7,-999.0,52,-99.99,,,0.00,Acu-Link.com,2013-04-01 18:30:00,
2013-04-01 14:46:00,66.0,48.4,29.90,WNW,292,7.8,-999.0,53,-99.99,,,0.00,Acu-Link.com,2013-04-01 18:46:00,
2013-04-01 15:01:00,67.8,46.8,29.90,WNW,292,8.9,-999.0,47,-99.99,,,0.00,Acu-Link.com,2013-04-01 19:01:00,
2013-04-01 15:46:00,66.7,45.3,29.91,NNW,337,7.3,-999.0,46,-99.99,,,0.00,Acu-Link.com,2013-04-01 19:46:00,
2013-04-01 16:01:00,67.8,45.7,29.91,West,270,8.3,-999.0,45,-99.99,,,0.00,Acu-Link.com,2013-04-01 20:01:00,
2013-04-01 16:16:00,66.4,46.1,29.90,WNW,292,7.3,-999.0,48,-99.99,,,0.00,Acu-Link.com,2013-04-01 20:16:00,
2013-04-01 16:31:00,67.5,46.6,29.90,NW,315,7.8,-999.0,47,-99.99,,,0.00,Acu-Link.com,2013-04-01 20:31:00,
2013-04-01 16:46:00,66.0,45.7,29.91,WNW,292,4.2,-999.0,48,-99.99,,,0.00,Acu-Link.com,2013-04-01 20:46:00,
2013-04-01 17:02:00,66.7,42.2,29.91,NNW,337,9.4,-999.0,41,-99.99,,,0.00,Acu-Link.com,2013-04-01 21:02:00,
2013-04-01 17:17:00,68.2,44.2,29.91,West,270,6.3,-999.0,42,-99.99,,,0.00,Acu-Link.com,2013-04-01 21:17:00,
2013-04-01 17:32:00,66.4,43.2,29.92,WNW,292,8.9,-999.0,43,-99.99,,,0.00,Acu-Link.com,2013-04-01 21:32:00,
2013-04-01 17:47:00,66.4,45.0,29.91,NW,315,8.3,-999.0,46,-99.99,,,0.00,Acu-Link.com,2013-04-01 21:47:00,
2013-04-01 18:02:00,65.5,44.7,29.92,WNW,292,5.8,-999.0,47,-99.99,,,0.00,Acu-Link.com,2013-04-01 22:02:00,
2013-04-01 18:17:00,65.7,43.8,29.92,NW,315,3.7,-999.0,45,-99.99,,,0.00,Acu-Link.com,2013-04-01 22:17:00,
2013-04-01 18:32:00,67.6,43.7,29.92,West,270,5.8,-999.0,42,-99.99,,,0.00,Acu-Link.com,2013-04-01 22:32:00,
2013-04-01 18:48:00,67.1,43.9,29.92,North,0,1.7,-999.0,43,-99.99,,,0.00,Acu-Link.com,2013-04-01 22:48:00,
2013-04-01 19:03:00,65.5,43.0,29.93,West,270,5.8,-999.0,44,-99.99,,,0.00,Acu-Link.com,2013-04-01 23:03:00,
2013-04-01 19:18:00,62.8,42.3,29.92,NW,315,2.7,-999.0,47,-99.99,,,0.00,Acu-Link.com,2013-04-01 23:18:00,
2013-04-01 19:33:00,61.3,41.4,29.93,NW,315,2.7,-999.0,48,-99.99,,,0.00,Acu-Link.com,2013-04-01 23:33:00,
2013-04-01 19:48:00,60.1,41.4,29.94,NW,315,3.7,-999.0,50,-99.99,,,0.00,Acu-Link.com,2013-04-01 23:48:00,
2013-04-01 20:03:00,58.3,41.2,29.94,North,0,2.7,-999.0,53,-99.99,,,0.00,Acu-Link.com,2013-04-02 00:03:00,
2013-04-01 20:18:00,57.4,41.4,29.94,NNW,337,2.7,-999.0,55,-99.99,,,0.00,Acu-Link.com,2013-04-02 00:18:00,
2013-04-01 20:33:00,56.3,40.8,29.94,WNW,292,2.7,-999.0,56,-99.99,,,0.00,Acu-Link.com,2013-04-02 00:33:00,
2013-04-01 20:49:00,55.6,40.2,29.95,NNE,22,1.7,-999.0,56,-99.99,,,0.00,Acu-Link.com,2013-04-02 00:49:00,
2013-04-01 21:04:00,54.7,38.9,29.95,ESE,112,0.0,-999.0,55,-99.99,,,0.00,Acu-Link.com,2013-04-02 01:04:00,
2013-04-01 21:19:00,54.0,37.7,29.96,NW,315,4.2,-999.0,54,-99.99,,,0.00,Acu-Link.com,2013-04-02 01:19:00,
2013-04-01 21:34:00,54.0,37.7,29.96,North,0,0.0,-999.0,54,-99.99,,,0.00,Acu-Link.com,2013-04-02 01:34:00,
2013-04-01 21:49:00,52.9,36.7,29.97,North,0,0.0,-999.0,54,-99.99,,,0.00,Acu-Link.com,2013-04-02 01:49:00,
2013-04-01 22:04:00,52.2,37.4,29.97,NNW,337,1.7,-999.0,57,-99.99,,,0.00,Acu-Link.com,2013-04-02 02:04:00,
2013-04-01 22:19:00,51.4,37.1,29.98,NW,315,2.2,-999.0,58,-99.99,,,0.00,Acu-Link.com,2013-04-02 02:19:00,
2013-04-01 22:35:00,50.5,36.7,29.98,NE,45,0.0,-999.0,59,-99.99,,,0.00,Acu-Link.com,2013-04-02 02:35:00,
2013-04-01 22:50:00,48.7,38.6,29.98,East,90,0.0,-999.0,68,-99.99,,,0.00,Acu-Link.com,2013-04-02 02:50:00,
2013-04-01 23:05:00,47.7,37.7,29.98,NW,315,0.0,-999.0,68,-99.99,,,0.00,Acu-Link.com,2013-04-02 03:05:00,
2013-04-01 23:20:00,47.5,37.5,29.99,WNW,292,3.7,-999.0,68,-99.99,,,0.00,Acu-Link.com,2013-04-02 03:20:00,
2013-04-01 23:35:00,49.5,37.0,29.98,WNW,292,4.2,-999.0,62,-99.99,,,0.00,Acu-Link.com,2013-04-02 03:35:00,
2013-04-01 23:50:00,50.2,36.9,29.98,West,270,5.8,-999.0,60,-99.99,,,0.00,Acu-Link.com,2013-04-02 03:50:00,